RJFC(METAR)
08/14 19:00
RJFC 141000Z 25003KT 9999 FEW015 29/26 Q1011 RMK A2986=
戻る
トップページへ戻る
IMOC Co,.Ltd.